Current Weather

Abadan

Abadan, Iran (OIAA)

Report from: Monday, March 4, 2024 11:00 PM UTC
Current time: Monday, March 4, 2024 11:45 PM UTC

Nearby weather – Weather history – Daily summaries
Weather forecast

Temperature13.0°C (55.4°F)
Dew point5.0°C (41.0°F)
Winds 4 kts (2.1 m/s, 4.6 mph) West (270°)
Clouds Sky clear
Altimeter29.91 in.Hg (1013 mB)
Relative humidity58 %
Density altitude-101 ft. (-31 m)
Remarks Ceiling and visibility OK
Flight conditions Visual Meteorological Conditions
Raw dataOIAA 042300Z 27004KT CAVOK 13/05 Q1013
An error has occurred. This application may no longer respond until reloaded. Reload 🗙